createdAt,value
2023-04-30T00:00:33.837Z,4.20
2023-04-30T00:03:00.315Z,4.38
2023-04-30T00:05:26.712Z,4.30
2023-04-30T00:07:53.049Z,4.00
2023-04-30T00:10:19.326Z,4.05
2023-04-30T00:12:45.606Z,3.85
2023-04-30T00:15:12.353Z,3.90
2023-04-30T00:17:38.737Z,4.00
2023-04-30T00:20:05.859Z,3.78
2023-04-30T00:22:33.279Z,4.07
2023-04-30T00:24:59.607Z,3.72
2023-04-30T00:27:26.034Z,3.63
2023-04-30T00:29:52.692Z,3.75
2023-04-30T00:32:19.125Z,3.75
2023-04-30T00:34:46.006Z,3.83
2023-04-30T00:37:12.685Z,4.13
2023-04-30T00:39:39.048Z,4.47
2023-04-30T00:42:05.397Z,4.07
2023-04-30T00:44:31.743Z,4.38
2023-04-30T00:46:58.054Z,4.10
2023-04-30T00:49:24.470Z,4.35
2023-04-30T00:51:52.044Z,4.43
2023-04-30T00:54:20.441Z,4.65
2023-04-30T00:56:47.185Z,4.63
2023-04-30T00:59:14.082Z,4.50
2023-04-30T01:01:41.011Z,4.20
2023-04-30T01:04:07.489Z,4.50
2023-04-30T01:06:34.105Z,3.95
2023-04-30T01:09:01.070Z,4.40
2023-04-30T01:12:05.307Z,3.92
2023-04-30T01:14:54.787Z,3.95
2023-04-30T01:17:33.451Z,4.35
2023-04-30T01:20:01.498Z,4.13
2023-04-30T01:22:27.750Z,4.45
2023-04-30T01:25:15.652Z,4.13
2023-04-30T01:28:10.010Z,4.03
2023-04-30T01:30:37.210Z,4.50
2023-04-30T01:33:03.771Z,4.28
2023-04-30T01:35:42.262Z,4.00
2023-04-30T01:38:37.844Z,4.38
2023-04-30T01:41:37.310Z,5.25
2023-04-30T01:44:23.907Z,4.47
2023-04-30T01:46:59.678Z,4.65
2023-04-30T01:49:31.444Z,4.15
2023-04-30T01:52:11.891Z,4.20
2023-04-30T01:54:52.691Z,4.23
2023-04-30T01:57:28.844Z,5.00
2023-04-30T01:59:56.029Z,4.70
2023-04-30T02:02:22.561Z,4.30
2023-04-30T02:04:48.916Z,4.50
2023-04-30T02:07:38.128Z,4.15
2023-04-30T02:10:05.877Z,4.15
2023-04-30T02:12:32.215Z,4.68
2023-04-30T02:14:58.514Z,4.45
2023-04-30T02:17:24.830Z,4.75
2023-04-30T02:19:51.203Z,4.05
2023-04-30T02:22:17.499Z,5.28
2023-04-30T02:24:43.813Z,5.35
2023-04-30T02:27:10.121Z,5.35
2023-04-30T02:29:36.439Z,5.60
2023-04-30T02:32:02.902Z,4.65
2023-04-30T02:34:29.326Z,4.60
2023-04-30T02:36:56.051Z,4.47
2023-04-30T02:39:22.430Z,5.18
2023-04-30T02:41:48.745Z,4.95
2023-04-30T02:44:15.518Z,5.00
2023-04-30T02:46:41.833Z,4.90
2023-04-30T02:49:08.132Z,5.18
2023-04-30T02:51:34.459Z,5.28
2023-04-30T02:54:00.772Z,5.25
2023-04-30T02:56:27.243Z,4.63
2023-04-30T02:58:53.770Z,5.55
2023-04-30T03:01:20.133Z,5.40
2023-04-30T03:03:46.534Z,5.63
2023-04-30T03:06:12.899Z,5.88
2023-04-30T03:08:39.267Z,4.65
2023-04-30T03:11:05.598Z,4.93
2023-04-30T03:13:31.894Z,5.65
2023-04-30T03:16:04.478Z,4.90
2023-04-30T03:18:30.996Z,4.65
2023-04-30T03:20:57.537Z,4.63
2023-04-30T03:23:24.276Z,4.53
2023-04-30T03:25:51.296Z,4.53
2023-04-30T03:28:17.608Z,4.68
2023-04-30T03:30:44.407Z,4.65
2023-04-30T03:33:11.106Z,5.20
2023-04-30T03:35:37.581Z,4.55
2023-04-30T03:38:04.112Z,5.25
2023-04-30T03:40:30.415Z,4.97
2023-04-30T03:42:56.759Z,4.90
2023-04-30T03:45:23.172Z,5.15
2023-04-30T03:47:52.413Z,4.75
2023-04-30T03:50:18.967Z,5.00
2023-04-30T03:52:45.950Z,4.63
2023-04-30T03:55:12.799Z,4.88
2023-04-30T03:57:43.268Z,5.20
2023-04-30T04:00:10.576Z,5.28
2023-04-30T04:02:37.477Z,5.57
2023-04-30T04:05:04.453Z,5.07
2023-04-30T04:07:30.767Z,5.75
2023-04-30T04:09:57.049Z,6.05
2023-04-30T04:12:23.612Z,6.40
2023-04-30T04:14:49.923Z,6.35
2023-04-30T04:17:16.344Z,6.00
2023-04-30T04:19:42.660Z,6.57
2023-04-30T04:22:08.957Z,6.40
2023-04-30T04:24:35.292Z,6.30
2023-04-30T04:27:03.788Z,5.93
2023-04-30T04:29:30.239Z,6.03
2023-04-30T04:31:56.585Z,6.10
2023-04-30T04:34:22.972Z,6.38
2023-04-30T04:36:49.277Z,6.35
2023-04-30T04:39:15.844Z,6.20
2023-04-30T04:41:42.342Z,6.30
2023-04-30T04:44:08.750Z,6.40
2023-04-30T04:46:35.299Z,6.70
2023-04-30T04:49:01.850Z,7.55
2023-04-30T04:51:28.410Z,6.22
2023-04-30T04:53:55.021Z,5.82
2023-04-30T04:56:21.367Z,5.93
2023-04-30T04:58:47.703Z,6.05
2023-04-30T05:01:14.458Z,6.35
2023-04-30T05:03:40.995Z,6.68
2023-04-30T05:06:07.404Z,7.22
2023-04-30T05:08:33.781Z,6.88
2023-04-30T05:11:00.129Z,6.72
2023-04-30T05:13:26.444Z,6.53
2023-04-30T05:15:53.755Z,6.75
2023-04-30T05:18:20.676Z,6.88
2023-04-30T05:20:47.027Z,6.88
2023-04-30T05:23:13.425Z,6.15
2023-04-30T05:25:39.779Z,6.97
2023-04-30T05:28:06.584Z,6.90
2023-04-30T05:30:32.997Z,6.47
2023-04-30T05:32:59.431Z,7.10
2023-04-30T05:35:25.809Z,6.78
2023-04-30T05:37:52.256Z,6.53
2023-04-30T05:40:18.720Z,6.88
2023-04-30T05:42:45.133Z,7.28
2023-04-30T05:45:14.484Z,6.70
2023-04-30T05:47:41.407Z,6.50
2023-04-30T05:50:09.787Z,6.18
2023-04-30T05:52:36.190Z,6.60
2023-04-30T05:55:02.508Z,6.43
2023-04-30T05:57:29.198Z,6.32
2023-04-30T05:59:55.707Z,6.18
2023-04-30T06:02:22.463Z,5.60
2023-04-30T06:04:48.940Z,5.53
2023-04-30T06:07:15.268Z,6.38
2023-04-30T06:09:41.627Z,5.80
2023-04-30T06:12:08.076Z,5.47
2023-04-30T06:14:35.680Z,5.70
2023-04-30T06:17:02.058Z,5.10
2023-04-30T06:19:28.371Z,5.32
2023-04-30T06:21:54.681Z,4.88
2023-04-30T06:24:21.025Z,4.35
2023-04-30T06:26:47.422Z,4.60
2023-04-30T06:29:13.755Z,5.10
2023-04-30T06:31:40.520Z,4.63
2023-04-30T06:34:07.037Z,4.97
2023-04-30T06:36:33.530Z,4.78
2023-04-30T06:38:59.841Z,5.07
2023-04-30T06:41:26.282Z,5.13
2023-04-30T06:43:52.693Z,4.32
2023-04-30T06:46:19.088Z,2.88
2023-04-30T06:48:45.463Z,5.00
2023-04-30T06:51:11.799Z,4.72
2023-04-30T06:53:38.250Z,3.97
2023-04-30T06:56:04.850Z,5.05
2023-04-30T06:58:31.158Z,5.65
2023-04-30T07:00:58.303Z,4.63
2023-04-30T07:03:24.849Z,4.75
2023-04-30T07:05:51.613Z,4.18
2023-04-30T07:08:18.037Z,4.75
2023-04-30T07:10:44.325Z,4.22
2023-04-30T07:13:10.673Z,4.60
2023-04-30T07:15:38.030Z,5.13
2023-04-30T07:18:04.569Z,4.68
2023-04-30T07:20:31.072Z,4.82
2023-04-30T07:23:00.059Z,4.60
2023-04-30T07:25:26.958Z,5.22
2023-04-30T07:27:53.489Z,3.80
2023-04-30T07:30:19.829Z,4.55
2023-04-30T07:32:47.769Z,4.72
2023-04-30T07:35:14.712Z,5.20
2023-04-30T07:37:41.656Z,4.40
2023-04-30T07:40:15.359Z,4.55
2023-04-30T07:42:45.789Z,4.78
2023-04-30T07:45:13.267Z,4.45
2023-04-30T07:47:39.787Z,4.80
2023-04-30T07:50:06.856Z,4.50
2023-04-30T07:52:33.182Z,4.63
2023-04-30T07:54:59.495Z,4.47
2023-04-30T07:57:26.849Z,5.00
2023-04-30T07:59:54.361Z,4.32
2023-04-30T08:02:21.139Z,4.70
2023-04-30T08:04:47.578Z,4.00
2023-04-30T08:07:15.669Z,4.07
2023-04-30T08:09:42.077Z,4.25
2023-04-30T08:12:09.231Z,3.80
2023-04-30T08:14:35.648Z,3.83
2023-04-30T08:17:03.053Z,3.90
2023-04-30T08:19:29.630Z,4.60
2023-04-30T08:21:56.191Z,4.13
2023-04-30T08:24:22.555Z,4.03
2023-04-30T08:26:49.205Z,3.83
2023-04-30T08:29:15.563Z,4.03
2023-04-30T08:31:41.920Z,4.00
2023-04-30T08:34:08.288Z,3.70
2023-04-30T08:36:34.636Z,3.55
2023-04-30T08:39:02.015Z,3.70
2023-04-30T08:41:33.999Z,3.05
2023-04-30T08:44:05.143Z,2.85
2023-04-30T08:46:35.821Z,3.75
2023-04-30T08:49:02.195Z,3.00
2023-04-30T08:51:32.038Z,3.70
2023-04-30T08:53:58.379Z,3.90
2023-04-30T08:56:26.168Z,4.20
2023-04-30T08:58:52.502Z,4.07
2023-04-30T09:01:19.886Z,3.08
2023-04-30T09:03:46.399Z,2.92
2023-04-30T09:06:17.176Z,2.85
2023-04-30T09:08:46.925Z,3.20
2023-04-30T09:11:30.408Z,3.30
2023-04-30T09:14:01.823Z,3.38
2023-04-30T09:16:32.734Z,2.90
2023-04-30T09:21:32.511Z,3.08
2023-04-30T09:24:01.486Z,2.88
2023-04-30T09:26:35.845Z,3.20
2023-04-30T09:29:07.719Z,3.63
2023-04-30T09:31:36.173Z,3.00
2023-04-30T09:34:02.822Z,3.42
2023-04-30T09:36:29.836Z,3.00
2023-04-30T09:38:56.151Z,3.15
2023-04-30T09:41:27.943Z,3.22
2023-04-30T09:43:58.066Z,2.20
2023-04-30T09:46:31.659Z,2.80
2023-04-30T09:48:59.448Z,2.40
2023-04-30T09:51:26.932Z,2.55
2023-04-30T09:53:54.376Z,3.13
2023-04-30T09:56:23.114Z,2.70
2023-04-30T09:58:57.030Z,3.28
2023-04-30T10:01:29.464Z,3.30
2023-04-30T10:03:58.089Z,2.70
2023-04-30T10:06:25.678Z,2.47
2023-04-30T10:08:57.234Z,2.47
2023-04-30T10:11:28.011Z,2.83
2023-04-30T10:14:11.914Z,2.42
2023-04-30T10:16:44.139Z,2.15
2023-04-30T10:19:15.288Z,2.65
2023-04-30T10:24:10.545Z,2.40
2023-04-30T10:26:37.446Z,2.70
2023-04-30T10:29:15.903Z,3.10
2023-04-30T10:31:48.157Z,3.10
2023-04-30T10:34:36.345Z,2.63
2023-04-30T10:37:22.380Z,2.03
2023-04-30T10:39:50.536Z,3.20
2023-04-30T10:42:17.312Z,3.10
2023-04-30T10:44:43.697Z,3.15
2023-04-30T10:47:10.262Z,3.53
2023-04-30T10:49:36.795Z,2.85
2023-04-30T10:52:04.625Z,3.05
2023-04-30T10:54:32.817Z,3.20
2023-04-30T10:57:19.142Z,3.28
2023-04-30T10:59:53.586Z,3.03
2023-04-30T11:02:20.258Z,2.42
2023-04-30T11:05:13.154Z,3.10
2023-04-30T11:07:55.994Z,2.92
2023-04-30T11:10:25.188Z,3.28
2023-04-30T11:12:53.308Z,3.35
2023-04-30T11:15:27.044Z,3.25
2023-04-30T11:17:58.750Z,2.75
2023-04-30T11:20:26.331Z,3.45
2023-04-30T11:23:24.958Z,3.17
2023-04-30T11:25:57.589Z,3.33
2023-04-30T11:28:26.256Z,2.85
2023-04-30T11:30:54.166Z,2.90
2023-04-30T11:33:21.799Z,1.98
2023-04-30T11:35:53.129Z,2.33
2023-04-30T11:38:22.773Z,2.80
2023-04-30T11:40:49.617Z,2.60
2023-04-30T11:43:30.167Z,2.97
2023-04-30T11:46:17.424Z,3.03
2023-04-30T11:48:45.672Z,2.65
2023-04-30T11:51:19.211Z,2.03
2023-04-30T11:53:50.555Z,2.05
2023-04-30T11:56:24.359Z,2.60
2023-04-30T11:58:52.977Z,2.10
2023-04-30T12:01:20.814Z,2.20
2023-04-30T12:03:49.391Z,1.92
2023-04-30T12:06:23.702Z,2.03
2023-04-30T12:08:53.841Z,2.20
2023-04-30T12:11:25.649Z,1.90
2023-04-30T12:13:54.079Z,1.55
2023-04-30T12:16:20.531Z,1.70
2023-04-30T12:18:47.656Z,1.73
2023-04-30T12:21:15.061Z,1.73
2023-04-30T12:23:41.860Z,1.80
2023-04-30T12:26:08.407Z,2.00
2023-04-30T12:28:35.199Z,1.75
2023-04-30T12:31:02.202Z,1.63
2023-04-30T12:33:31.632Z,1.60
2023-04-30T12:35:59.312Z,1.65
2023-04-30T12:38:25.855Z,1.05
2023-04-30T12:40:52.185Z,1.08
2023-04-30T12:43:18.852Z,0.98
2023-04-30T12:45:51.463Z,1.33
2023-04-30T12:48:19.780Z,1.20
2023-04-30T12:51:05.151Z,1.15
2023-04-30T12:53:31.716Z,1.40
2023-04-30T12:56:15.856Z,0.98
2023-04-30T12:58:45.470Z,1.10
2023-04-30T13:01:13.655Z,0.98
2023-04-30T13:03:40.184Z,1.00
2023-04-30T13:06:07.210Z,1.20
2023-04-30T13:08:42.269Z,1.55
2023-04-30T13:13:43.438Z,1.30
2023-04-30T13:16:09.861Z,1.17
2023-04-30T13:18:37.036Z,1.05
2023-04-30T13:21:03.822Z,1.05
2023-04-30T13:23:31.924Z,0.90
2023-04-30T13:26:00.493Z,0.88
2023-04-30T13:28:26.848Z,0.80
2023-04-30T13:30:53.212Z,0.70
2023-04-30T13:33:20.653Z,0.60
2023-04-30T13:35:47.636Z,0.70
2023-04-30T13:38:13.915Z,0.80
2023-04-30T13:40:40.214Z,0.70
2023-04-30T13:43:07.706Z,0.60
2023-04-30T13:45:34.083Z,0.70
2023-04-30T13:48:00.401Z,0.60
2023-04-30T13:50:26.764Z,0.77
2023-04-30T13:52:53.549Z,0.70
2023-04-30T13:55:19.875Z,0.50
2023-04-30T13:57:46.185Z,0.60
2023-04-30T14:00:13.282Z,0.68
2023-04-30T14:02:39.754Z,0.60
2023-04-30T14:05:07.016Z,0.80
2023-04-30T14:07:33.515Z,0.90
2023-04-30T14:09:59.950Z,0.80
2023-04-30T14:12:26.419Z,0.60
2023-04-30T14:14:52.860Z,0.75
2023-04-30T14:17:19.418Z,0.68
2023-04-30T14:19:46.026Z,0.70
2023-04-30T14:22:12.379Z,0.60
2023-04-30T14:24:38.880Z,0.80
2023-04-30T14:27:05.250Z,0.32
2023-04-30T14:29:31.631Z,0.50
2023-04-30T14:31:58.056Z,0.60
2023-04-30T14:34:24.590Z,0.85
2023-04-30T14:36:51.479Z,0.70
2023-04-30T14:39:17.788Z,0.60
2023-04-30T14:41:44.106Z,0.60
2023-04-30T14:44:10.474Z,0.50
2023-04-30T14:46:37.224Z,0.70
2023-04-30T14:49:04.263Z,0.40
2023-04-30T14:51:31.826Z,0.68
2023-04-30T14:53:59.003Z,0.57
2023-04-30T14:56:27.708Z,0.90
2023-04-30T14:58:54.318Z,0.63
2023-04-30T15:01:20.674Z,0.60
2023-04-30T15:03:47.308Z,0.43
2023-04-30T15:06:14.192Z,0.57
2023-04-30T15:08:40.836Z,0.70
2023-04-30T15:11:09.603Z,0.55
2023-04-30T15:13:39.825Z,0.47
2023-04-30T15:16:06.959Z,0.50
2023-04-30T15:18:34.030Z,0.50
2023-04-30T15:21:00.549Z,0.40
2023-04-30T15:23:26.906Z,0.50
2023-04-30T15:25:53.511Z,0.50
2023-04-30T15:28:20.609Z,0.40
2023-04-30T15:30:46.962Z,0.60
2023-04-30T15:33:13.478Z,0.55
2023-04-30T15:35:40.268Z,0.40
2023-04-30T15:38:06.613Z,0.35
2023-04-30T15:40:32.941Z,0.30
2023-04-30T15:42:59.251Z,0.40
2023-04-30T15:45:27.566Z,0.30
2023-04-30T15:47:54.130Z,0.40
2023-04-30T15:50:21.270Z,0.50
2023-04-30T15:52:47.943Z,0.43
2023-04-30T15:55:14.379Z,0.68
2023-04-30T15:57:40.712Z,0.52
2023-04-30T16:00:07.636Z,0.75
2023-04-30T16:02:34.023Z,0.60
2023-04-30T16:05:00.698Z,0.52
2023-04-30T16:07:27.680Z,0.80
2023-04-30T16:09:54.189Z,0.50
2023-04-30T16:12:20.993Z,0.40
2023-04-30T16:14:47.349Z,0.40
2023-04-30T16:17:13.664Z,0.50
2023-04-30T16:19:40.875Z,0.80
2023-04-30T16:22:08.981Z,0.88
2023-04-30T16:24:35.562Z,0.55
2023-04-30T16:27:01.864Z,0.73
2023-04-30T16:29:28.182Z,0.52
2023-04-30T16:31:54.678Z,0.80
2023-04-30T16:34:21.007Z,0.70
2023-04-30T16:36:47.396Z,0.70
2023-04-30T16:39:15.756Z,0.40
2023-04-30T16:41:43.528Z,1.08
2023-04-30T16:44:11.119Z,0.70
2023-04-30T16:46:37.476Z,0.63
2023-04-30T16:49:03.914Z,0.80
2023-04-30T16:51:31.684Z,1.55
2023-04-30T16:53:57.992Z,0.50
2023-04-30T16:56:25.752Z,0.60
2023-04-30T16:58:52.076Z,0.82
2023-04-30T17:01:19.047Z,0.50
2023-04-30T17:03:46.137Z,0.85
2023-04-30T17:06:14.109Z,0.77
2023-04-30T17:08:40.619Z,0.73
2023-04-30T17:11:07.108Z,0.60
2023-04-30T17:13:33.423Z,0.70
2023-04-30T17:16:02.003Z,1.15
2023-04-30T17:18:28.756Z,0.90
2023-04-30T17:20:55.157Z,1.05
2023-04-30T17:23:21.516Z,1.73
2023-04-30T17:25:47.932Z,1.00
2023-04-30T17:28:14.229Z,0.60
2023-04-30T17:30:41.818Z,0.73
2023-04-30T17:33:08.601Z,0.52
2023-04-30T17:35:35.036Z,0.70
2023-04-30T17:38:01.410Z,0.40
2023-04-30T17:40:27.801Z,0.52
2023-04-30T17:42:54.087Z,0.65
2023-04-30T17:45:20.452Z,1.30
2023-04-30T17:47:46.827Z,0.70
2023-04-30T17:50:13.300Z,0.50
2023-04-30T17:52:39.727Z,0.50
2023-04-30T17:55:08.107Z,0.52
2023-04-30T17:57:34.897Z,0.70
2023-04-30T18:00:01.754Z,0.95
2023-04-30T18:02:28.096Z,0.73
2023-04-30T18:04:54.451Z,0.90
2023-04-30T18:07:21.044Z,0.60
2023-04-30T18:09:47.458Z,0.63
2023-04-30T18:12:14.245Z,0.70
2023-04-30T18:14:40.604Z,1.65
2023-04-30T18:17:07.149Z,0.60
2023-04-30T18:19:33.506Z,0.73
2023-04-30T18:22:00.403Z,0.40
2023-04-30T18:24:28.272Z,0.40
2023-04-30T18:26:55.401Z,0.50
2023-04-30T18:29:23.599Z,0.70
2023-04-30T18:31:50.071Z,0.70
2023-04-30T18:34:16.540Z,0.50
2023-04-30T18:36:43.030Z,0.82
2023-04-30T18:39:12.075Z,1.80
2023-04-30T18:41:38.464Z,0.57
2023-04-30T18:44:05.569Z,0.73
2023-04-30T18:46:31.883Z,0.50
2023-04-30T18:48:58.176Z,0.52
2023-04-30T18:51:24.618Z,0.45
2023-04-30T18:53:51.073Z,0.57
2023-04-30T18:56:17.519Z,0.57
2023-04-30T18:58:45.125Z,0.55
2023-04-30T19:01:11.614Z,0.57
2023-04-30T19:03:38.028Z,0.70
2023-04-30T19:06:04.704Z,0.60
2023-04-30T19:08:31.064Z,0.63
2023-04-30T19:10:57.542Z,0.50
2023-04-30T19:13:23.902Z,0.52
2023-04-30T19:15:50.285Z,1.10
2023-04-30T19:18:17.648Z,0.70
2023-04-30T19:21:00.934Z,0.82
2023-04-30T19:23:30.181Z,1.05
2023-04-30T19:25:57.794Z,1.45
2023-04-30T19:28:24.131Z,1.60
2023-04-30T19:30:54.171Z,1.20
2023-04-30T19:33:24.419Z,1.03
2023-04-30T19:35:53.286Z,1.20
2023-04-30T19:38:20.945Z,1.70
2023-04-30T19:40:52.539Z,2.45
2023-04-30T19:43:19.982Z,1.88
2023-04-30T19:45:49.709Z,1.48
2023-04-30T19:48:16.227Z,1.10
2023-04-30T19:50:44.797Z,0.90
2023-04-30T19:53:12.079Z,0.98
2023-04-30T19:55:38.788Z,0.73
2023-04-30T19:58:05.350Z,0.80
2023-04-30T20:00:33.307Z,1.00
2023-04-30T20:03:04.144Z,0.90
2023-04-30T20:05:35.983Z,1.10
2023-04-30T20:08:05.528Z,0.93
2023-04-30T20:10:33.899Z,0.80
2023-04-30T20:13:00.458Z,0.88
2023-04-30T20:15:27.130Z,0.70
2023-04-30T20:17:53.682Z,0.85
2023-04-30T20:20:21.145Z,0.80
2023-04-30T20:22:50.222Z,1.42
2023-04-30T20:25:16.576Z,0.70
2023-04-30T20:27:43.375Z,1.00
2023-04-30T20:30:10.450Z,0.80
2023-04-30T20:32:38.842Z,0.95
2023-04-30T20:35:07.056Z,0.93
2023-04-30T20:37:35.388Z,1.10
2023-04-30T20:40:02.239Z,0.82
2023-04-30T20:42:28.898Z,1.13
2023-04-30T20:44:55.740Z,0.90
2023-04-30T20:47:22.699Z,0.85
2023-04-30T20:49:49.091Z,0.90
2023-04-30T20:52:15.715Z,0.93
2023-04-30T20:54:42.040Z,0.90
2023-04-30T20:57:09.373Z,0.85
2023-04-30T20:59:37.034Z,0.68
2023-04-30T21:02:04.370Z,1.00
2023-04-30T21:04:31.125Z,0.80
2023-04-30T21:06:57.469Z,1.17
2023-04-30T21:09:23.833Z,0.93
2023-04-30T21:11:50.131Z,1.10
2023-04-30T21:14:17.296Z,1.23
2023-04-30T21:16:44.516Z,1.02
2023-04-30T21:19:11.061Z,1.20
2023-04-30T21:21:37.438Z,1.10
2023-04-30T21:24:05.008Z,0.90
2023-04-30T21:26:31.540Z,1.00
2023-04-30T21:28:57.863Z,1.23
2023-04-30T21:31:24.521Z,1.27
2023-04-30T21:33:50.859Z,1.00
2023-04-30T21:36:17.983Z,1.08
2023-04-30T21:38:44.396Z,1.25
2023-04-30T21:41:15.270Z,1.05
2023-04-30T21:43:42.211Z,1.15
2023-04-30T21:46:09.607Z,1.35
2023-04-30T21:48:38.151Z,1.20
2023-04-30T21:51:14.657Z,1.05
2023-04-30T21:53:41.800Z,1.40
2023-04-30T21:56:09.235Z,1.15
2023-04-30T21:58:36.017Z,1.13
2023-04-30T22:01:04.115Z,1.48
2023-04-30T22:03:31.567Z,1.50
2023-04-30T22:05:58.497Z,1.20
2023-04-30T22:08:25.067Z,1.50
2023-04-30T22:10:58.355Z,1.15
2023-04-30T22:13:25.704Z,1.30
2023-04-30T22:15:52.472Z,1.25
2023-04-30T22:18:20.002Z,1.55
2023-04-30T22:20:49.029Z,1.50
2023-04-30T22:23:16.497Z,1.20
2023-04-30T22:25:43.072Z,1.25
2023-04-30T22:28:12.111Z,1.13
2023-04-30T22:30:39.924Z,1.30
2023-04-30T22:33:06.685Z,1.30
2023-04-30T22:35:37.875Z,1.20
2023-04-30T22:38:05.167Z,1.27
2023-04-30T22:40:33.688Z,1.30
2023-04-30T22:43:00.927Z,2.20
2023-04-30T22:45:29.525Z,1.50
2023-04-30T22:47:56.294Z,1.70
2023-04-30T22:50:22.755Z,1.45
2023-04-30T22:52:49.574Z,1.50
2023-04-30T22:55:15.889Z,1.50
2023-04-30T22:57:42.181Z,1.58
2023-04-30T23:00:09.637Z,1.65
2023-04-30T23:02:36.635Z,1.50
2023-04-30T23:05:03.828Z,2.10
2023-04-30T23:07:30.143Z,1.70
2023-04-30T23:09:56.639Z,1.80
2023-04-30T23:12:23.226Z,1.50
2023-04-30T23:14:50.052Z,1.35
2023-04-30T23:17:16.591Z,1.70
2023-04-30T23:19:42.881Z,1.67
2023-04-30T23:22:10.210Z,1.73
2023-04-30T23:24:37.625Z,1.75
2023-04-30T23:27:04.305Z,1.80
2023-04-30T23:29:30.615Z,1.70
2023-04-30T23:31:57.455Z,1.60
2023-04-30T23:34:23.927Z,1.75
2023-04-30T23:36:50.395Z,1.42
2023-04-30T23:39:16.901Z,1.63
2023-04-30T23:41:43.252Z,2.22
2023-04-30T23:44:09.585Z,1.52
2023-04-30T23:46:36.190Z,1.60
2023-04-30T23:49:02.579Z,1.55
2023-04-30T23:51:28.870Z,1.40
2023-04-30T23:53:55.182Z,1.63
2023-04-30T23:56:21.902Z,1.45
2023-04-30T23:58:48.254Z,1.90
